• Join FlightAware (Why Join?)
  • Login
  • US Flag 
03:30AM EDT


 

Airport Tracker/Info


-or-


 

Live Flight TrackerFlight Track Log ✈ N6199B ✈ 27-Jan-2014 ✈ KDAB - KFXE

Flight Track Log - Related Links

Times and Time Zones

All times are in EST time to prevent confusion due to time zone crossing. See the N6199B flight status page for this flight to view local times or setup timezone preferences in your user account.

Time Position Orientation Groundspeed Altitude Reporting Facility
EST Latitude Longitude Course Direction KTS MPH feet Rate Location/Type
08:54PM 28.9667 -81.0333 156° South 99 114 3,500  Level Orlando TRACON
08:55PM 28.9333 -81.0167 156° South 99 114 3,500 -60 Level Orlando TRACON
08:56PM 28.9167 -81.0167 180° South 99 114 3,400  Descending Orlando TRACON
08:57PM 28.8833 -81.0000 156° South 99 114 3,500  Climbing Orlando TRACON
08:58PM 28.8667 -81.0000 180° South 97 112 3,500  Level Orlando TRACON
08:59PM 28.8333 -80.9833 156° South 99 114 3,500  Level Orlando TRACON
09:00PM 28.8000 -80.9833 180° South 96 110 3,500  Level Orlando TRACON
09:01PM 28.7833 -80.9667 139° Southeast 95 109 3,500  Level Orlando TRACON
09:02PM 28.7500 -80.9667 180° South 98 113 3,500  Level Orlando TRACON
09:03PM 28.7333 -80.9500 139° Southeast 102 117 3,500  Level Orlando TRACON
09:04PM 28.7000 -80.9500 180° South 102 117 3,500  Level Orlando TRACON
09:05PM 28.6667 -80.9333 156° South 99 114 3,500  Level Orlando TRACON
09:06PM 28.6500 -80.9333 180° South 99 114 3,500  Level Orlando TRACON
09:07PM 28.6167 -80.9333 180° South 101 116 3,500  Level Orlando TRACON
09:08PM 28.6000 -80.9167 139° Southeast 99 114 3,500  Level Orlando TRACON
09:09PM 28.5667 -80.9000 156° South 102 117 3,500  Level Orlando TRACON
09:10PM 28.5333 -80.9000 180° South 101 116 3,500  Level Orlando TRACON
09:11PM 28.5167 -80.8833 139° Southeast 104 120 3,500  Level Orlando TRACON
09:12PM 28.4833 -80.8667 156° South 104 120 3,500  Level Orlando TRACON
09:13PM 28.4667 -80.8667 180° South 100 115 3,500  Level Orlando TRACON
09:14PM 28.4333 -80.8500 156° South 98 113 3,500  Level Orlando TRACON
09:16PM 28.3664 -80.8414 174° South 106 122 3,500  Level Miami Center
09:17PM 28.3417 -80.8311 160° South 106 122 3,500  Level Miami Center
09:18PM 28.3169 -80.8233 165° South 106 122 3,500  Level Miami Center
09:19PM 28.2900 -80.8175 169° South 101 116 3,500  Level Miami Center
09:20PM 28.2631 -80.8047 157° South 101 116 3,500  Level Miami Center
09:21PM 28.2403 -80.8017 173° South 106 122 3,500  Level Miami Center
09:22PM 28.2133 -80.7914 161° South 106 122 3,500 -60 Level Miami Center
09:23PM 28.1867 -80.7786 157° South 101 116 3,400 -60 Descending Miami Center
09:24PM 28.1597 -80.7731 170° South 101 116 3,400  Level Miami Center
09:25PM 28.1347 -80.7675 169° South 101 116 3,500  Climbing Miami Center
09:26PM 28.1119 -80.7594 163° South 101 116 3,400 -60 Descending Miami Center
09:27PM 28.0831 -80.7514 166° South 96 110 3,400  Level Miami Center
09:28PM 28.0561 -80.7436 166° South 101 116 3,400  Level Miami Center
09:29PM 28.0311 -80.7381 169° South 101 116 3,400  Level Miami Center
09:30PM 28.0064 -80.7322 168° South 101 116 3,500  Climbing Miami Center
09:31PM 27.9814 -80.7269 169° South 101 116 3,500  Level Miami Center
09:32PM 27.9525 -80.7164 162° South 101 116 3,500  Level Miami Center
09:33PM 27.9233 -80.7083 166° South 101 116 3,500  Level Miami Center
09:34PM 27.8967 -80.7006 166° South 101 116 3,500  Level Miami Center
09:35PM 27.8739 -80.6925 163° South 106 122 3,500  Level Miami Center
09:36PM 27.8469 -80.6822 161° South 106 122 3,500  Level Miami Center
09:37PM 27.8158 -80.6742 167° South 106 122 3,500  Level Miami Center
09:38PM 27.7911 -80.6664 164° South 106 122 3,500  Level Miami Center
09:39PM 27.7642 -80.6583 165° South 106 122 3,500  Level Miami Center
09:40PM 27.7392 -80.6506 165° South 106 122 3,500  Level Miami Center
09:41PM 27.7125 -80.6403 161° South 106 122 3,500  Level Miami Center
09:42PM 27.6833 -80.6347 170° South 106 122 3,500  Level Miami Center
09:43PM 27.6564 -80.6267 165° South 106 122 3,500  Level Miami Center
09:44PM 27.6317 -80.6142 156° South 106 122 3,500  Level Miami Center
09:45PM 27.6067 -80.6064 165° South 106 122 3,500  Level Miami Center
09:46PM 27.5778 -80.5936 159° South 106 122 3,500  Level Miami Center
09:47PM 27.5531 -80.5883 169° South 106 122 3,500  Level Miami Center
09:48PM 27.5261 -80.5756 157° South 106 122 3,500  Level Miami Center
09:49PM 27.5033 -80.5678 163° South 106 122 3,500  Level Miami Center
09:50PM 27.4764 -80.5600 166° South 106 122 3,500  Level Miami Center
09:51PM 27.4475 -80.5519 166° South 106 122 3,500 -60 Level Miami Center
09:52PM 27.4206 -80.5464 170° South 106 122 3,400  Descending Miami Center
09:53PM 27.3956 -80.5364 160° South 106 122 3,500  Climbing Miami Center
09:54PM 27.3706 -80.5331 173° South 101 116 3,500  Level Miami Center
09:55PM 27.3458 -80.5253 164° South 101 116 3,500  Level Miami Center
09:56PM 27.3167 -80.5175 167° South 101 116 3,500  Level Miami Center
09:57PM 27.2897 -80.5119 170° South 101 116 3,500  Level Miami Center
09:58PM 27.2650 -80.5042 164° South 101 116 3,500 -60 Level Miami Center
09:59PM 27.2400 -80.4986 169° South 101 116 3,400 -60 Descending Miami Center
10:00PM 27.2111 -80.4883 162° South 101 116 3,400  Level Miami Center
10:01PM 27.1842 -80.4828 170° South 101 116 3,500  Climbing Miami Center
10:02PM 27.1572 -80.4728 162° South 101 116 3,500 -60 Level Miami Center
10:19PM 26.7050 -80.3494 165° South 103 119 3,400  Descending Miami Center
10:20PM 26.6378 -80.2915 165° South  Level FlightAware Approximate
10:20PM 26.6656 -80.3414 170° South 102 117 3,500  Level Miami Center
10:21PM 26.6077 -80.2827 165° South  Level FlightAware Approximate
10:21PM 26.6386 -80.3336 166° South 100 115 3,500  Level Miami Center
10:22PM 26.5777 -80.2738 165° South  Level FlightAware Approximate
10:22PM 26.6117 -80.3211 157° South 102 117 3,500  Level Miami Center
10:23PM 26.5476 -80.2649 165° South  Level FlightAware Approximate
10:23PM 26.5825 -80.3156 170° South 100 115 3,500  Level Miami Center
10:24PM 26.5175 -80.2561 165° South  Level FlightAware Approximate
10:24PM 26.5578 -80.3081 165° South 99 114 3,500  Level Miami Center
10:25PM 26.5286 -80.3025 170° South 101 116 3,500  Level Miami Center
10:26PM 26.5036 -80.2969 169° South 101 116 3,500  Level Miami Center
10:27PM 26.4767 -80.2894 166° South 99 114 3,600  Climbing Miami Center
10:28PM 26.4475 -80.2814 166° South 101 116 3,500 -60 Descending Miami Center
10:29PM 26.4206 -80.2761 170° South 99 114 3,500  Level Miami Center
10:30PM 26.3917 -80.2661 163° South 100 115 3,500 -120 Level Miami Center
10:31PM 26.3647 -80.2583 165° South 109 125 3,300 -360 Descending Miami Center
10:32PM 26.3314 -80.2528 172° South 116 133 2,900 -480 Descending Miami Center
10:33PM 26.3022 -80.2450 167° South 115 132 2,400 -480 Descending Miami Center
10:34PM 26.2731 -80.2464 182° South 110 127 2,000 -480 Descending Miami Center
10:36PM 26.2247 -80.2519 186° South 118 136 1,300 -480 Descending Miami Center
10:36PM 26.2042 -80.2444 162° South 134 154 1,100 -480 Descending Miami Center
10:37PM 26.1919 -80.2233 123° Southeast 101 116 500 -540 Descending Miami Center
10:39PM 26.1861 -80.1852 100° East  Level FlightAware Approximate
10:46PM 26.1833 -80.1667 114° Southeast  Level FlightAware Approximate
10:47PM 26.1973 -80.1707 114° Southeast  Level Estimated